Time;durP1;ratioP1;P1;durP2;ratioP2;P2;SDS_P1;SDS_P2;PMS_P1;PMS_P2;Temp;Humidity;BMP_temperature;BMP_pressure;BME280_temperature;BME280_humidity;BME280_pressure;Samples;Min_cycle;Max_cycle;Signal;HPM_P1;HPM_P2
2024/01/12 00:02:10;;;;;;;9.30;8.18;;;;;;;;;;9950967;28;20057;-77
2024/01/12 00:07:02;;;;;;;11.55;9.13;;;;;;;;;;9951264;28;20035;-76
2024/01/12 00:11:54;;;;;;;9.40;8.43;;;;;;;;;;9949975;28;20058;-76
2024/01/12 00:16:48;;;;;;;9.05;7.95;;;;;;;;;;9949921;28;20053;-76
2024/01/12 00:21:43;;;;;;;9.18;7.50;;;;;;;;;;9948910;28;20039;-76
2024/01/12 00:26:35;;;;;;;10.73;8.13;;;;;;;;;;9949717;28;20441;-77
2024/01/12 00:31:27;;;;;;;10.80;8.63;;;;;;;;;;9949641;28;20050;-76
2024/01/12 00:36:19;;;;;;;8.43;6.80;;;;;;;;;;9949898;28;20125;-76
2024/01/12 00:41:11;;;;;;;10.63;8.65;;;;;;;;;;9952518;28;20077;-76
2024/01/12 00:46:03;;;;;;;10.23;8.00;;;;;;;;;;9950702;28;20422;-77
2024/01/12 00:50:55;;;;;;;10.25;8.52;;;;;;;;;;9948805;28;20062;-76
2024/01/12 00:55:47;;;;;;;8.07;7.28;;;;;;;;;;9949062;28;20458;-76
2024/01/12 01:00:39;;;;;;;10.00;7.40;;;;;;;;;;9949255;28;20489;-76
2024/01/12 01:05:31;;;;;;;8.43;7.22;;;;;;;;;;9948692;28;20093;-76
2024/01/12 01:10:23;;;;;;;10.18;8.52;;;;;;;;;;9949078;28;20382;-77
2024/01/12 01:15:15;;;;;;;7.78;6.75;;;;;;;;;;9948004;28;20130;-76
2024/01/12 01:20:07;;;;;;;11.77;8.18;;;;;;;;;;9952679;28;20077;-77
2024/01/12 01:25:00;;;;;;;11.02;7.32;;;;;;;;;;9948236;28;20521;-77
2024/01/12 01:29:52;;;;;;;9.10;7.72;;;;;;;;;;9948201;28;20083;-77
2024/01/12 01:34:44;;;;;;;7.65;6.72;;;;;;;;;;9949398;28;20132;-77
2024/01/12 01:39:36;;;;;;;8.02;6.78;;;;;;;;;;9955134;28;20047;-76
2024/01/12 01:44:28;;;;;;;11.50;8.52;;;;;;;;;;9954638;28;20478;-77
2024/01/12 01:49:20;;;;;;;11.35;7.35;;;;;;;;;;9954297;28;20110;-77
2024/01/12 01:54:12;;;;;;;8.48;6.97;;;;;;;;;;9938450;28;20039;-76
2024/01/12 01:59:05;;;;;;;8.32;6.70;;;;;;;;;;9937791;28;20039;-77
2024/01/12 02:03:57;;;;;;;9.25;7.07;;;;;;;;;;9954167;28;20546;-77
2024/01/12 02:08:50;;;;;;;9.02;7.28;;;;;;;;;;9936512;28;20042;-77
2024/01/12 02:13:42;;;;;;;6.95;5.55;;;;;;;;;;9953336;28;20045;-77
2024/01/12 02:18:34;;;;;;;8.38;6.30;;;;;;;;;;9953553;28;20042;-77
2024/01/12 02:23:26;;;;;;;6.60;5.80;;;;;;;;;;9952956;28;20050;-77
2024/01/12 02:28:18;;;;;;;9.10;6.93;;;;;;;;;;9953312;28;20057;-77
2024/01/12 02:33:10;;;;;;;8.60;4.95;;;;;;;;;;9934413;28;20431;-77
2024/01/12 02:38:02;;;;;;;6.05;5.05;;;;;;;;;;9953321;28;20099;-77
2024/01/12 02:42:54;;;;;;;7.68;4.85;;;;;;;;;;9956212;28;20051;-76
2024/01/12 02:47:46;;;;;;;4.78;3.97;;;;;;;;;;9951753;28;20043;-76
2024/01/12 02:52:37;;;;;;;5.18;4.68;;;;;;;;;;9951123;28;20196;-77
2024/01/12 02:57:30;;;;;;;6.32;4.43;;;;;;;;;;9953184;28;20082;-77
2024/01/12 03:02:23;;;;;;;5.75;5.05;;;;;;;;;;9952145;28;20050;-76
2024/01/12 03:07:15;;;;;;;4.93;4.43;;;;;;;;;;9952013;28;20411;-76
2024/01/12 03:12:07;;;;;;;6.88;4.70;;;;;;;;;;9951403;28;20093;-77
2024/01/12 03:16:59;;;;;;;6.68;4.22;;;;;;;;;;9951559;28;20161;-77
2024/01/12 03:21:51;;;;;;;3.70;3.38;;;;;;;;;;9951189;28;20910;-76
2024/01/12 03:26:43;;;;;;;4.32;3.65;;;;;;;;;;9951848;28;20047;-79
2024/01/12 03:31:35;;;;;;;4.25;3.70;;;;;;;;;;9950876;28;20054;-78
2024/01/12 03:36:27;;;;;;;5.00;3.75;;;;;;;;;;9950543;28;20042;-77
2024/01/12 03:41:19;;;;;;;4.88;4.30;;;;;;;;;;9950710;28;20433;-77
2024/01/12 03:46:11;;;;;;;4.35;3.92;;;;;;;;;;9949717;28;20055;-76
2024/01/12 03:51:04;;;;;;;4.50;3.38;;;;;;;;;;9949940;28;20074;-77
2024/01/12 03:55:56;;;;;;;4.28;3.85;;;;;;;;;;9949346;28;20485;-77
2024/01/12 04:00:48;;;;;;;4.35;3.90;;;;;;;;;;9950438;28;20482;-76
2024/01/12 04:05:40;;;;;;;3.63;3.20;;;;;;;;;;9950171;28;20073;-77
2024/01/12 04:10:32;;;;;;;4.05;3.58;;;;;;;;;;9949888;28;20351;-76
2024/01/12 04:15:24;;;;;;;4.32;3.92;;;;;;;;;;9948769;28;20476;-77
2024/01/12 04:20:16;;;;;;;5.20;4.18;;;;;;;;;;9949940;28;20086;-77
2024/01/12 04:25:08;;;;;;;4.05;3.70;;;;;;;;;;9949009;28;20058;-76
2024/01/12 04:30:00;;;;;;;3.67;3.38;;;;;;;;;;9949957;28;20138;-77
2024/01/12 04:34:52;;;;;;;4.85;3.47;;;;;;;;;;9948860;28;20478;-77
2024/01/12 04:39:44;;;;;;;4.30;3.40;;;;;;;;;;9949495;28;20063;-77
2024/01/12 04:44:36;;;;;;;3.03;2.83;;;;;;;;;;9949724;28;20047;-77
2024/01/12 04:49:28;;;;;;;5.00;3.38;;;;;;;;;;9949269;28;20138;-76
2024/01/12 04:54:20;;;;;;;4.28;3.28;;;;;;;;;;9949344;28;20074;-77
2024/01/12 04:59:12;;;;;;;4.45;3.97;;;;;;;;;;9957435;28;20040;-76
2024/01/12 05:04:03;;;;;;;4.50;4.10;;;;;;;;;;9948917;28;20122;-77
2024/01/12 05:08:55;;;;;;;4.43;4.03;;;;;;;;;;9948871;28;20491;-77
2024/01/12 05:13:49;;;;;;;4.55;3.83;;;;;;;;;;9955621;28;20051;-76
2024/01/12 05:18:42;;;;;;;4.00;3.67;;;;;;;;;;9956255;28;20049;-77
2024/01/12 05:23:34;;;;;;;4.78;4.32;;;;;;;;;;9955753;28;20046;-76
2024/01/12 05:28:26;;;;;;;5.13;4.63;;;;;;;;;;9955402;28;20069;-77
2024/01/12 05:33:18;;;;;;;4.85;4.25;;;;;;;;;;9954984;28;20110;-76
2024/01/12 05:38:10;;;;;;;4.78;4.28;;;;;;;;;;9955083;28;20461;-76
2024/01/12 05:43:02;;;;;;;5.13;3.78;;;;;;;;;;9954358;28;20113;-76
2024/01/12 05:47:54;;;;;;;13.75;12.43;;;;;;;;;;9957150;28;20109;-76
2024/01/12 05:52:47;;;;;;;154.27;104.88;;;;;;;;;;9955263;28;20074;-77
2024/01/12 05:57:39;;;;;;;10.82;9.60;;;;;;;;;;9953183;28;20057;-77
2024/01/12 06:02:30;;;;;;;7.55;6.85;;;;;;;;;;9954861;28;20126;-76
2024/01/12 06:07:23;;;;;;;30.55;27.27;;;;;;;;;;9954340;28;20143;-76
2024/01/12 06:12:15;;;;;;;77.45;53.42;;;;;;;;;;9973768;28;20056;-77
2024/01/12 06:17:08;;;;;;;19.65;14.20;;;;;;;;;;9985844;28;20039;-77
2024/01/12 06:21:59;;;;;;;31.67;24.48;;;;;;;;;;9985053;28;20042;-77
2024/01/12 06:26:51;;;;;;;37.20;20.92;;;;;;;;;;9984940;28;20042;-77
2024/01/12 06:31:43;;;;;;;52.25;36.58;;;;;;;;;;9984802;28;20073;-77
2024/01/12 06:36:42;;;;;;;79.78;49.80;;;;;;;;;;9983904;28;20130;-77
2024/01/12 06:41:34;;;;;;;57.10;33.37;;;;;;;;;;9983185;28;20588;-77
2024/01/12 06:46:26;;;;;;;24.55;15.73;;;;;;;;;;9985513;28;20462;-77
2024/01/12 06:51:22;;;;;;;13.82;8.95;;;;;;;;;;9988566;28;20042;-76
2024/01/12 06:56:21;;;;;;;12.52;9.43;;;;;;;;;;9988382;28;20049;-77
2024/01/12 07:01:17;;;;;;;23.90;16.60;;;;;;;;;;9985614;28;20417;-77
2024/01/12 07:06:09;;;;;;;96.53;66.55;;;;;;;;;;9987618;28;20149;-77
2024/01/12 07:11:05;;;;;;;7.53;6.55;;;;;;;;;;9970253;28;20054;-77
2024/01/12 07:15:58;;;;;;;14.85;11.88;;;;;;;;;;9987635;28;20073;-77
2024/01/12 07:20:51;;;;;;;6.43;5.82;;;;;;;;;;9987308;28;20046;-76
2024/01/12 07:25:43;;;;;;;5.38;4.70;;;;;;;;;;9987106;28;20034;-77
2024/01/12 07:30:36;;;;;;;8.18;7.32;;;;;;;;;;9986733;28;20081;-76
2024/01/12 07:35:28;;;;;;;56.08;40.40;;;;;;;;;;9978920;28;20057;-76
2024/01/12 07:40:20;;;;;;;4.80;4.40;;;;;;;;;;9982662;28;20042;-77
2024/01/12 07:45:12;;;;;;;4.00;3.67;;;;;;;;;;9975778;28;20133;-77
2024/01/12 07:50:04;;;;;;;5.15;4.68;;;;;;;;;;9959007;28;20070;-76
2024/01/12 07:54:56;;;;;;;24.95;14.55;;;;;;;;;;9958125;28;20469;-78
2024/01/12 07:59:48;;;;;;;4.88;3.88;;;;;;;;;;9974085;28;20436;-80
2024/01/12 08:04:40;;;;;;;8.38;5.30;;;;;;;;;;9980686;28;20418;-81
2024/01/12 08:09:32;;;;;;;6.13;4.32;;;;;;;;;;9981209;28;20049;-79
2024/01/12 08:14:24;;;;;;;18.73;12.95;;;;;;;;;;9949190;28;20546;-81
2024/01/12 08:19:16;;;;;;;23.55;19.17;;;;;;;;;;9961757;28;20046;-77
2024/01/12 08:24:07;;;;;;;14.65;11.98;;;;;;;;;;9954824;28;20394;-77
2024/01/12 08:29:01;;;;;;;4.50;4.05;;;;;;;;;;9948683;28;20062;-77
2024/01/12 08:33:53;;;;;;;6.65;5.47;;;;;;;;;;9948546;28;20113;-79
2024/01/12 08:38:45;;;;;;;6.95;6.25;;;;;;;;;;9961859;28;20473;-79
2024/01/12 08:43:37;;;;;;;7.30;6.60;;;;;;;;;;10197692;22;20483;-79
2024/01/12 08:48:30;;;;;;;8.55;7.13;;;;;;;;;;10183931;28;20039;-79
2024/01/12 08:53:22;;;;;;;8.18;6.88;;;;;;;;;;10167442;28;20048;-78
2024/01/12 08:58:14;;;;;;;8.32;7.50;;;;;;;;;;10153843;28;20091;-78
2024/01/12 09:03:06;;;;;;;24.58;17.17;;;;;;;;;;10169022;28;20082;-78
2024/01/12 09:07:58;;;;;;;9.50;6.72;;;;;;;;;;10153652;28;20052;-78
2024/01/12 09:12:50;;;;;;;11.00;6.78;;;;;;;;;;10152252;28;20055;-77
2024/01/12 09:17:41;;;;;;;8.68;6.72;;;;;;;;;;10153527;28;20033;-77
2024/01/12 09:22:33;;;;;;;8.98;6.65;;;;;;;;;;10155179;28;20052;-83
2024/01/12 09:27:26;;;;;;;11.10;7.20;;;;;;;;;;10160858;28;20039;-83
2024/01/12 09:32:18;;;;;;;13.00;7.47;;;;;;;;;;10158750;28;20105;-83
2024/01/12 09:37:10;;;;;;;14.55;6.93;;;;;;;;;;10153616;28;20070;-83
2024/01/12 09:42:02;;;;;;;10.65;7.95;;;;;;;;;;10152688;28;20135;-83
2024/01/12 09:46:59;;;;;;;12.48;8.77;;;;;;;;;;10151863;28;20060;-83
2024/01/12 09:51:51;;;;;;;11.95;9.57;;;;;;;;;;10151035;28;20117;-81
2024/01/12 09:56:46;;;;;;;15.32;7.65;;;;;;;;;;10155739;28;20048;-83
2024/01/12 10:01:41;;;;;;;12.38;9.85;;;;;;;;;;10151242;28;20037;-83
2024/01/12 10:06:33;;;;;;;22.13;15.85;;;;;;;;;;10152932;28;20055;-82
2024/01/12 10:11:25;;;;;;;20.50;15.52;;;;;;;;;;10170981;28;20044;-82
2024/01/12 10:16:17;;;;;;;20.30;15.73;;;;;;;;;;10155531;28;20040;-76
2024/01/12 10:21:09;;;;;;;26.02;15.65;;;;;;;;;;10153994;28;20067;-82
2024/01/12 10:26:03;;;;;;;19.20;15.07;;;;;;;;;;10159716;28;20045;-82
2024/01/12 10:30:56;;;;;;;25.35;16.52;;;;;;;;;;10151006;28;20052;-82
2024/01/12 10:35:55;;;;;;;20.67;17.77;;;;;;;;;;10153872;28;20048;-82
2024/01/12 10:40:47;;;;;;;24.02;18.77;;;;;;;;;;10132425;28;20376;-84
2024/01/12 10:45:44;;;;;;;27.88;20.52;;;;;;;;;;10149831;28;20091;-83
2024/01/12 10:50:42;;;;;;;29.40;20.50;;;;;;;;;;10125699;28;20045;-75
2024/01/12 10:55:37;;;;;;;30.60;20.60;;;;;;;;;;10139314;28;20123;-75
2024/01/12 11:00:31;;;;;;;27.63;20.95;;;;;;;;;;10149003;28;20066;-75
2024/01/12 11:05:25;;;;;;;25.92;18.83;;;;;;;;;;10148461;28;20044;-79
2024/01/12 11:10:19;;;;;;;26.77;19.85;;;;;;;;;;10151851;28;20044;-75
2024/01/12 11:15:11;;;;;;;24.20;19.30;;;;;;;;;;10114401;28;20040;-76
2024/01/12 11:20:11;;;;;;;28.77;20.00;;;;;;;;;;10149354;28;20029;-78
2024/01/12 11:25:09;;;;;;;34.45;22.08;;;;;;;;;;10155366;28;20511;-76
2024/01/12 11:30:02;;;;;;;22.02;18.90;;;;;;;;;;10148028;28;20128;-76
2024/01/12 11:35:12;;;;;;;25.70;19.05;;;;;;;;;;10154546;28;20613;-74
2024/01/12 11:40:09;;;;;;;30.05;20.67;;;;;;;;;;10146185;28;20044;-74
2024/01/12 11:45:02;;;;;;;28.15;22.25;;;;;;;;;;10149189;28;20080;-74
2024/01/12 11:49:54;;;;;;;28.48;21.23;;;;;;;;;;10129904;28;20044;-74
2024/01/12 11:54:46;;;;;;;28.30;20.73;;;;;;;;;;10157167;28;20066;-74
2024/01/12 11:59:38;;;;;;;31.00;22.58;;;;;;;;;;10157531;28;20122;-73
2024/01/12 12:04:31;;;;;;;26.67;19.33;;;;;;;;;;10162617;28;20132;-74
2024/01/12 12:09:23;;;;;;;25.77;18.83;;;;;;;;;;10143863;28;20040;-75
2024/01/12 12:14:15;;;;;;;23.83;17.08;;;;;;;;;;10147402;28;20076;-74
2024/01/12 12:19:08;;;;;;;24.13;18.02;;;;;;;;;;10132053;28;20090;-74
2024/01/12 12:24:01;;;;;;;29.90;21.52;;;;;;;;;;10131901;28;20043;-73
2024/01/12 12:28:56;;;;;;;29.38;21.00;;;;;;;;;;10146126;28;20051;-78
2024/01/12 12:33:48;;;;;;;22.75;18.65;;;;;;;;;;10144044;28;20055;-78
2024/01/12 12:38:40;;;;;;;24.20;17.30;;;;;;;;;;10147158;28;20362;-78
2024/01/12 12:43:33;;;;;;;24.52;18.02;;;;;;;;;;10127658;28;20053;-78
2024/01/12 12:48:26;;;;;;;26.67;18.75;;;;;;;;;;10148208;28;20443;-78
2024/01/12 12:53:19;;;;;;;25.00;20.33;;;;;;;;;;10152391;28;20048;-77
2024/01/12 12:58:12;;;;;;;22.48;18.80;;;;;;;;;;10147922;28;20040;-78
2024/01/12 13:03:04;;;;;;;25.27;19.40;;;;;;;;;;10145321;28;20037;-78
2024/01/12 13:07:56;;;;;;;24.88;19.77;;;;;;;;;;10145730;28;20123;-79
2024/01/12 13:12:48;;;;;;;25.98;18.35;;;;;;;;;;10146030;28;20053;-78
2024/01/12 13:17:40;;;;;;;29.92;21.92;;;;;;;;;;10128047;28;20051;-78
2024/01/12 13:22:32;;;;;;;24.33;20.02;;;;;;;;;;10147003;28;20044;-78
2024/01/12 13:27:25;;;;;;;24.98;19.88;;;;;;;;;;10128340;28;20065;-77
2024/01/12 13:32:17;;;;;;;25.42;20.73;;;;;;;;;;10149202;28;20045;-77
2024/01/12 13:37:09;;;;;;;36.05;20.48;;;;;;;;;;10149816;28;20054;-78
2024/01/12 13:42:01;;;;;;;30.05;22.33;;;;;;;;;;10151873;28;20128;-79
2024/01/12 13:46:54;;;;;;;36.75;23.55;;;;;;;;;;10152014;28;20048;-78
2024/01/12 13:51:46;;;;;;;29.65;23.95;;;;;;;;;;10152127;28;20051;-77
2024/01/12 13:56:37;;;;;;;31.23;21.67;;;;;;;;;;10151776;28;20052;-77
2024/01/12 14:01:30;;;;;;;30.98;24.80;;;;;;;;;;10152370;28;20069;-85
2024/01/12 14:06:22;;;;;;;32.78;26.10;;;;;;;;;;10138670;28;20533;-86
2024/01/12 14:11:14;;;;;;;31.92;24.73;;;;;;;;;;10153252;28;20052;-82
2024/01/12 14:16:06;;;;;;;34.83;24.83;;;;;;;;;;10157620;28;20466;-84
2024/01/12 14:20:59;;;;;;;27.83;24.70;;;;;;;;;;10173529;28;20060;-85
2024/01/12 14:25:51;;;;;;;30.45;24.92;;;;;;;;;;10157404;28;20101;-83
2024/01/12 14:30:43;;;;;;;29.40;23.38;;;;;;;;;;10152882;28;20075;-82
2024/01/12 14:35:37;;;;;;;34.72;25.45;;;;;;;;;;10161439;28;20415;-84
2024/01/12 14:40:29;;;;;;;34.50;25.98;;;;;;;;;;10189361;28;20036;-83
2024/01/12 14:45:22;;;;;;;28.25;23.08;;;;;;;;;;10187933;28;20060;-84
2024/01/12 14:50:14;;;;;;;30.20;22.27;;;;;;;;;;10195969;28;20036;-83
2024/01/12 14:55:06;;;;;;;44.85;24.40;;;;;;;;;;10187437;28;20113;-83
2024/01/12 15:00:00;;;;;;;27.17;23.80;;;;;;;;;;10193554;28;20067;-83
2024/01/12 15:04:57;;;;;;;30.77;24.23;;;;;;;;;;10190857;28;20385;-83
2024/01/12 15:09:49;;;;;;;25.77;20.58;;;;;;;;;;10174467;28;20089;-83
2024/01/12 15:14:41;;;;;;;38.17;27.20;;;;;;;;;;10175293;28;20465;-82
2024/01/12 15:19:33;;;;;;;33.78;26.63;;;;;;;;;;10189746;28;20355;-84
2024/01/12 15:24:25;;;;;;;33.90;25.05;;;;;;;;;;10210139;28;20040;-83
2024/01/12 15:29:18;;;;;;;34.97;25.88;;;;;;;;;;10169347;28;20455;-83
2024/01/12 15:34:11;;;;;;;40.65;31.98;;;;;;;;;;10174641;28;20051;-84
2024/01/12 15:39:03;;;;;;;66.60;41.88;;;;;;;;;;10168999;28;20523;-82
2024/01/12 15:43:55;;;;;;;38.72;27.30;;;;;;;;;;10160059;28;20052;-80
2024/01/12 15:48:47;;;;;;;43.00;32.47;;;;;;;;;;10179485;28;20051;-80
2024/01/12 15:53:40;;;;;;;78.32;56.33;;;;;;;;;;10163214;28;20159;-80
2024/01/12 15:58:31;;;;;;;79.05;57.83;;;;;;;;;;10146411;28;20043;-80
2024/01/12 16:03:24;;;;;;;30.58;24.42;;;;;;;;;;10153890;28;20049;-79
2024/01/12 16:08:17;;;;;;;41.58;33.20;;;;;;;;;;10145456;28;20044;-73
2024/01/12 16:13:09;;;;;;;44.38;31.25;;;;;;;;;;10146192;28;20049;-74
2024/01/12 16:18:01;;;;;;;100.03;74.57;;;;;;;;;;10145004;28;20056;-74
2024/01/12 16:22:53;;;;;;;95.72;68.47;;;;;;;;;;10156395;28;20445;-74
2024/01/12 16:27:47;;;;;;;166.48;99.00;;;;;;;;;;10145784;28;20052;-74
2024/01/12 16:32:39;;;;;;;49.95;35.40;;;;;;;;;;10148692;28;20067;-75
2024/01/12 16:37:31;;;;;;;40.20;28.75;;;;;;;;;;10159602;28;20040;-75
2024/01/12 16:42:23;;;;;;;35.55;29.38;;;;;;;;;;10164887;28;20040;-76
2024/01/12 16:47:15;;;;;;;40.22;29.42;;;;;;;;;;10150922;28;20037;-75
2024/01/12 16:52:07;;;;;;;60.40;40.55;;;;;;;;;;10154088;28;20044;-75
2024/01/12 16:56:59;;;;;;;84.20;55.97;;;;;;;;;;10156960;28;20466;-75
2024/01/12 17:01:51;;;;;;;208.10;158.98;;;;;;;;;;10151226;28;20691;-75
2024/01/12 17:06:43;;;;;;;89.22;68.55;;;;;;;;;;10150258;28;20048;-75
2024/01/12 17:11:35;;;;;;;58.40;44.53;;;;;;;;;;10149943;28;20150;-75
2024/01/12 17:16:34;;;;;;;105.88;74.60;;;;;;;;;;10150866;28;20119;-75
2024/01/12 17:21:26;;;;;;;;;;;;;;;;;;10152107;28;20089;-73
2024/01/12 17:26:19;;;;;;;91.47;56.67;;;;;;;;;;10155241;28;20019;-73
2024/01/12 17:31:11;;;;;;;68.50;48.47;;;;;;;;;;10151808;28;20165;-74
2024/01/12 17:36:03;;;;;;;60.55;39.72;;;;;;;;;;10150761;28;20044;-72
2024/01/12 17:40:55;;;;;;;67.50;42.70;;;;;;;;;;10150449;28;20451;-72
2024/01/12 17:45:47;;;;;;;45.88;36.17;;;;;;;;;;10151108;28;20056;-72
2024/01/12 17:50:39;;;;;;;54.38;36.90;;;;;;;;;;10151088;28;20067;-72
2024/01/12 17:55:31;;;;;;;53.53;38.35;;;;;;;;;;10153001;28;20084;-72
2024/01/12 18:00:23;;;;;;;43.88;33.35;;;;;;;;;;10150696;28;20049;-72
2024/01/12 18:05:15;;;;;;;46.45;34.25;;;;;;;;;;10150647;28;20052;-74
2024/01/12 18:10:07;;;;;;;45.80;35.80;;;;;;;;;;10159636;28;20474;-74
2024/01/12 18:14:59;;;;;;;45.83;32.65;;;;;;;;;;10150375;28;20133;-74
2024/01/12 18:19:51;;;;;;;47.00;34.78;;;;;;;;;;10149820;28;20041;-74
2024/01/12 18:24:48;;;;;;;48.45;35.78;;;;;;;;;;10153688;28;20420;-74
2024/01/12 18:29:40;;;;;;;43.75;32.50;;;;;;;;;;10148417;28;20040;-74
2024/01/12 18:34:32;;;;;;;44.65;34.80;;;;;;;;;;10148594;28;20076;-74
2024/01/12 18:39:24;;;;;;;46.72;36.35;;;;;;;;;;10149299;28;20440;-73
2024/01/12 18:44:16;;;;;;;58.72;40.38;;;;;;;;;;10147439;28;20083;-74
2024/01/12 18:49:07;;;;;;;43.78;34.70;;;;;;;;;;10148178;28;20123;-76
2024/01/12 18:53:59;;;;;;;53.60;45.28;;;;;;;;;;10151109;28;20049;-74
2024/01/12 18:58:51;;;;;;;46.25;36.35;;;;;;;;;;10148525;28;20116;-77
2024/01/12 19:03:43;;;;;;;55.88;43.40;;;;;;;;;;10147806;28;20040;-75
2024/01/12 19:08:35;;;;;;;51.30;40.45;;;;;;;;;;10148064;28;20127;-76
2024/01/12 19:13:28;;;;;;;46.90;34.90;;;;;;;;;;10148611;28;20134;-77
2024/01/12 19:18:20;;;;;;;47.55;37.35;;;;;;;;;;10146454;28;20446;-73
2024/01/12 19:23:12;;;;;;;48.45;38.08;;;;;;;;;;10152550;28;20037;-74
2024/01/12 19:28:04;;;;;;;47.58;36.47;;;;;;;;;;10155409;28;20371;-75
2024/01/12 19:32:56;;;;;;;42.15;33.80;;;;;;;;;;10144762;28;20403;-76
2024/01/12 19:37:48;;;;;;;46.70;36.95;;;;;;;;;;10147219;28;20058;-71
2024/01/12 19:42:40;;;;;;;72.75;55.28;;;;;;;;;;10146368;28;20044;-71
2024/01/12 19:47:32;;;;;;;49.22;39.95;;;;;;;;;;10148056;28;20048;-71
2024/01/12 19:52:24;;;;;;;46.63;36.97;;;;;;;;;;10146845;28;20051;-71
2024/01/12 19:57:16;;;;;;;44.92;36.72;;;;;;;;;;10146899;28;20036;-72
2024/01/12 20:02:09;;;;;;;51.08;37.00;;;;;;;;;;10145077;28;20569;-71
2024/01/12 20:07:01;;;;;;;49.78;39.03;;;;;;;;;;10145450;28;20040;-73
2024/01/12 20:11:53;;;;;;;45.53;34.28;;;;;;;;;;10149510;28;20040;-75
2024/01/12 20:16:45;;;;;;;49.10;35.30;;;;;;;;;;10158591;28;20089;-78
2024/01/12 20:21:38;;;;;;;47.13;35.35;;;;;;;;;;10152899;28;20347;-75
2024/01/12 20:26:30;;;;;;;46.95;36.55;;;;;;;;;;10144454;28;20051;-75
2024/01/12 20:31:22;;;;;;;48.42;35.20;;;;;;;;;;10145561;28;20496;-77
2024/01/12 20:36:17;;;;;;;50.08;34.85;;;;;;;;;;10144106;28;20410;-77
2024/01/12 20:41:10;;;;;;;49.75;37.15;;;;;;;;;;10150832;28;20101;-75
2024/01/12 20:46:02;;;;;;;43.58;36.20;;;;;;;;;;10154525;28;20072;-76
2024/01/12 20:50:54;;;;;;;47.88;35.15;;;;;;;;;;10153363;28;20091;-76
2024/01/12 20:55:47;;;;;;;44.13;34.08;;;;;;;;;;10159195;28;20059;-76
2024/01/12 21:00:39;;;;;;;46.75;33.25;;;;;;;;;;10185586;28;20047;-76
2024/01/12 21:05:31;;;;;;;46.15;36.50;;;;;;;;;;10169457;28;20040;-76
2024/01/12 21:10:23;;;;;;;47.22;36.22;;;;;;;;;;10167812;28;20053;-76
2024/01/12 21:15:16;;;;;;;50.72;36.72;;;;;;;;;;10159237;28;20094;-75
2024/01/12 21:20:08;;;;;;;46.78;36.40;;;;;;;;;;10162297;28;20036;-75
2024/01/12 21:25:03;;;;;;;44.38;34.38;;;;;;;;;;10158791;28;20040;-76
2024/01/12 21:29:56;;;;;;;38.33;33.00;;;;;;;;;;10166066;28;20470;-74
2024/01/12 21:34:48;;;;;;;46.05;35.65;;;;;;;;;;10151687;28;20497;-74
2024/01/12 21:39:42;;;;;;;47.30;36.00;;;;;;;;;;10172809;28;20603;-76
2024/01/12 21:44:34;;;;;;;43.33;33.03;;;;;;;;;;10164681;28;20044;-75
2024/01/12 21:49:26;;;;;;;44.85;35.15;;;;;;;;;;10168292;28;20060;-76
2024/01/12 21:54:18;;;;;;;49.13;40.50;;;;;;;;;;10158135;28;20043;-75
2024/01/12 21:59:10;;;;;;;50.17;35.78;;;;;;;;;;10159021;28;20044;-75
2024/01/12 22:04:02;;;;;;;48.08;39.25;;;;;;;;;;10151483;28;20044;-75
2024/01/12 22:08:54;;;;;;;52.42;41.22;;;;;;;;;;10152284;28;20044;-74
2024/01/12 22:13:46;;;;;;;51.03;39.83;;;;;;;;;;10148882;28;20057;-75
2024/01/12 22:18:38;;;;;;;57.00;41.90;;;;;;;;;;10162627;28;20052;-75
2024/01/12 22:23:30;;;;;;;56.08;42.55;;;;;;;;;;10182305;28;20055;-75
2024/01/12 22:28:22;;;;;;;54.10;41.10;;;;;;;;;;10191863;28;20044;-75
2024/01/12 22:33:14;;;;;;;54.17;40.67;;;;;;;;;;10186945;28;20517;-75
2024/01/12 22:38:06;;;;;;;55.83;42.17;;;;;;;;;;10186758;28;20488;-75
2024/01/12 22:42:58;;;;;;;48.08;42.30;;;;;;;;;;10185415;28;20044;-74
2024/01/12 22:47:50;;;;;;;51.90;39.28;;;;;;;;;;10186382;28;20048;-75
2024/01/12 22:52:42;;;;;;;50.67;40.58;;;;;;;;;;10186571;28;20040;-75
2024/01/12 22:57:34;;;;;;;50.08;38.42;;;;;;;;;;10185370;28;20047;-74
2024/01/12 23:02:26;;;;;;;48.17;38.05;;;;;;;;;;10186375;28;20052;-74
2024/01/12 23:07:20;;;;;;;53.60;41.17;;;;;;;;;;10185702;28;20551;-74
2024/01/12 23:12:12;;;;;;;49.03;39.30;;;;;;;;;;10185637;28;20109;-75
2024/01/12 23:17:07;;;;;;;48.65;38.05;;;;;;;;;;10186192;28;20142;-75
2024/01/12 23:21:59;;;;;;;48.80;38.13;;;;;;;;;;10185511;28;20097;-75
2024/01/12 23:26:51;;;;;;;49.72;39.45;;;;;;;;;;10181029;28;20062;-75
2024/01/12 23:31:44;;;;;;;48.15;37.40;;;;;;;;;;10185111;28;20435;-75
2024/01/12 23:36:37;;;;;;;46.88;34.17;;;;;;;;;;10184545;28;20130;-74
2024/01/12 23:41:31;;;;;;;44.00;32.05;;;;;;;;;;10183788;28;20040;-75
2024/01/12 23:46:23;;;;;;;45.22;32.25;;;;;;;;;;10184338;28;20109;-74
2024/01/12 23:51:15;;;;;;;44.38;33.17;;;;;;;;;;10184066;28;20052;-75
2024/01/12 23:56:07;;;;;;;46.08;30.45;;;;;;;;;;10183756;28;20048;-75
